Date,TemperatureHighF,TemperatureAvgF,TemperatureLowF,DewpointHighF,DewpointAvgF,DewpointLowF,HumidityHigh,HumidityAvg,HumidityLow,PressureMaxIn,PressureMinIn,WindSpeedMaxMPH,WindSpeedAvgMPH,GustSpeedMaxMPH,PrecipitationSumIn
2013-7-1,87.0,77.1,71.0,79.0,72.3,67.0,89,85,73,30.01,29.92,3,0,11,3.08
2013-7-2,90.0,77.7,73.0,79.0,72.5,69.0,88,84,70,30.08,29.94,5,0,11,0.22
2013-7-3,88.0,76.3,73.0,78.0,71.7,69.0,88,86,71,30.10,30.02,3,0,9,0.01
2013-7-4,91.0,79.7,71.0,79.0,73.7,67.0,89,82,60,30.12,30.03,6,0,12,0.47
2013-7-5,88.0,77.7,74.0,78.0,72.5,70.0,88,84,69,30.12,30.02,9,1,11,0.12
2013-7-6,92.0,80.6,74.0,78.0,73.3,70.0,89,79,56,30.10,29.98,5,0,11,0.11
2013-7-7,92.0,81.2,75.0,77.0,74.2,71.0,87,80,59,30.08,29.99,5,1,11,0.19
2013-7-8,93.0,79.0,71.0,77.0,70.2,-99.9,89,78,49,30.12,30.04,5,0,10,0.02
2013-7-9,88.0,77.9,72.0,76.0,72.3,68.0,88,83,62,30.12,30.03,4,0,12,0.30
2013-7-10,90.0,77.0,70.0,76.0,68.9,-99.9,89,80,60,30.07,29.98,3,0,10,0.02
2013-7-11,90.0,79.6,71.0,78.0,73.0,67.0,88,81,65,30.02,29.92,4,0,7,0.26
2013-7-12,89.0,78.6,72.0,78.0,72.5,68.0,88,82,67,29.96,29.88,4,0,10,0.05
2013-7-13,88.0,75.9,71.0,78.0,71.2,67.0,89,85,72,29.98,29.90,4,0,12,1.17
2013-7-14,84.0,75.5,73.0,77.0,71.1,69.0,88,86,77,30.07,29.95,6,0,15,0.32
2013-7-15,91.0,77.4,72.0,77.0,71.6,68.0,88,83,58,30.06,29.98,3,0,8,0.06
2013-7-16,86.0,78.3,72.0,76.0,71.5,68.0,88,80,65,30.10,30.02,7,1,16,0.08
2013-7-17,86.0,78.8,73.0,75.0,71.8,69.0,88,80,66,30.10,30.00,5,1,14,0.03
2013-7-18,82.0,73.9,71.0,76.0,69.6,67.0,88,87,82,30.11,30.03,1,0,7,0.92
2013-7-19,91.0,79.3,70.0,80.0,72.7,66.0,89,81,61,30.10,30.01,3,0,7,0.01
2013-7-20,78.0,74.8,74.0,74.0,69.4,-99.9,87,85,81,30.10,30.01,2,0,3,0.04
2013-7-21,91.0,80.5,74.0,81.0,74.8,70.0,89,83,68,30.13,30.02,3,0,6,0.11
2013-7-22,94.0,81.0,72.0,80.0,74.3,68.0,88,81,60,30.13,30.06,3,0,8,0.08
2013-7-23,94.0,81.5,72.0,78.0,73.6,68.0,88,78,57,30.09,29.97,2,0,9,0.00
2013-7-24,91.0,81.8,71.0,77.0,72.9,67.0,87,75,58,30.02,29.92,8,1,10,0.00
2013-7-25,92.0,80.9,71.0,79.0,73.6,67.0,87,79,64,30.01,29.91,6,1,11,0.00
2013-7-26,94.0,83.7,77.0,79.0,75.8,72.0,87,78,59,30.03,29.95,6,1,11,0.01
2013-7-27,95.0,82.7,75.0,78.0,74.9,71.0,88,78,58,29.99,29.92,5,1,12,0.01
2013-7-28,95.0,82.1,71.0,77.0,72.7,67.0,88,75,52,30.05,29.93,6,0,10,0.00
2013-7-29,94.0,78.7,72.0,79.0,72.2,68.0,87,81,58,30.09,30.01,4,0,10,1.04
2013-7-30,92.0,83.1,75.0,81.0,76.3,71.0,87,80,66,30.14,30.05,5,0,11,0.08
2013-7-31,92.0,79.5,72.0,79.0,73.1,68.0,88,81,63,30.10,30.02,5,0,11,0.51